createdAt,value
2019-04-14T00:00:25.131Z,37.90
2019-04-14T00:03:04.503Z,40.17
2019-04-14T00:05:36.988Z,39.10
2019-04-14T00:08:09.036Z,37.80
2019-04-14T00:10:42.122Z,39.70
2019-04-14T00:13:15.245Z,38.20
2019-04-14T00:15:50.432Z,38.63
2019-04-14T00:18:21.265Z,37.40
2019-04-14T00:20:53.490Z,36.50
2019-04-14T00:23:26.132Z,41.37
2019-04-14T00:26:22.832Z,39.57
2019-04-14T00:28:55.589Z,35.73
2019-04-14T00:31:28.578Z,38.93
2019-04-14T00:34:07.264Z,35.43
2019-04-14T00:36:50.227Z,38.13
2019-04-14T00:39:29.436Z,38.90
2019-04-14T00:42:08.624Z,40.17
2019-04-14T00:44:49.704Z,39.83
2019-04-14T00:47:28.903Z,36.80
2019-04-14T00:50:01.645Z,36.80
2019-04-14T00:52:34.105Z,37.37
2019-04-14T00:55:06.163Z,36.00
2019-04-14T00:57:39.754Z,36.73
2019-04-14T01:00:12.783Z,36.77
2019-04-14T01:02:47.124Z,36.40
2019-04-14T01:05:19.552Z,35.60
2019-04-14T01:07:52.335Z,34.93
2019-04-14T01:10:25.610Z,34.93
2019-04-14T01:12:58.157Z,31.93
2019-04-14T01:15:31.069Z,32.47
2019-04-14T01:18:04.024Z,33.50
2019-04-14T01:20:36.375Z,34.30
2019-04-14T01:23:08.523Z,33.80
2019-04-14T01:25:41.046Z,35.43
2019-04-14T01:28:13.717Z,35.87
2019-04-14T01:30:45.929Z,36.87
2019-04-14T01:33:18.295Z,35.53
2019-04-14T01:35:51.015Z,37.17
2019-04-14T01:38:23.344Z,35.87
2019-04-14T01:40:55.396Z,34.80
2019-04-14T01:43:27.792Z,36.27
2019-04-14T01:46:09.589Z,34.97
2019-04-14T01:48:34.605Z,37.57
2019-04-14T01:51:44.459Z,36.73
2019-04-14T01:54:40.988Z,38.30
2019-04-14T01:57:44.239Z,37.33
2019-04-14T02:00:38.580Z,37.93
2019-04-14T02:03:10.724Z,39.90
2019-04-14T02:05:43.181Z,40.43
2019-04-14T02:08:15.526Z,40.27
2019-04-14T02:10:47.907Z,41.67
2019-04-14T02:13:20.345Z,40.63
2019-04-14T02:15:52.880Z,42.00
2019-04-14T02:18:25.184Z,41.77
2019-04-14T02:20:57.884Z,41.57
2019-04-14T02:23:30.202Z,41.37
2019-04-14T02:26:02.361Z,42.87
2019-04-14T02:28:35.358Z,42.47
2019-04-14T02:31:17.701Z,39.90
2019-04-14T02:34:09.541Z,41.23
2019-04-14T02:41:57.028Z,41.00
2019-04-14T02:46:53.414Z,40.70
2019-04-14T02:52:04.758Z,40.67
2019-04-14T02:54:44.980Z,40.40
2019-04-14T02:57:16.933Z,40.83
2019-04-14T03:07:28.637Z,43.23
2019-04-14T03:09:56.249Z,40.90
2019-04-14T03:15:07.050Z,40.83
2019-04-14T03:18:26.370Z,39.47
2019-04-14T03:21:03.957Z,41.97
2019-04-14T03:23:57.887Z,40.87
2019-04-14T03:26:41.928Z,40.83
2019-04-14T03:29:20.999Z,40.87
2019-04-14T03:37:31.027Z,42.33
2019-04-14T03:42:17.151Z,42.20
2019-04-14T03:44:41.413Z,40.67
2019-04-14T03:49:45.101Z,40.53
2019-04-14T03:52:27.114Z,43.60
2019-04-14T03:54:50.129Z,43.47
2019-04-14T03:57:06.104Z,42.47
2019-04-14T03:59:39.222Z,44.87
2019-04-14T04:02:11.824Z,43.87
2019-04-14T04:04:44.515Z,41.33
2019-04-14T04:07:17.058Z,43.90
2019-04-14T04:09:54.238Z,43.63
2019-04-14T04:12:27.174Z,42.27
2019-04-14T04:14:59.728Z,44.03
2019-04-14T04:17:45.163Z,46.17
2019-04-14T04:20:43.452Z,46.87
2019-04-14T04:23:35.640Z,43.70
2019-04-14T04:26:30.508Z,42.50
2019-04-14T04:29:28.799Z,44.77
2019-04-14T04:32:20.836Z,43.37
2019-04-14T04:35:11.101Z,44.87
2019-04-14T04:37:52.687Z,46.53
2019-04-14T04:40:27.205Z,45.97
2019-04-14T04:42:59.213Z,45.93
2019-04-14T04:45:32.013Z,48.43
2019-04-14T04:48:04.580Z,43.87
2019-04-14T04:50:36.913Z,44.50
2019-04-14T04:53:09.150Z,43.70
2019-04-14T04:55:41.662Z,44.43
2019-04-14T04:58:13.754Z,44.67
2019-04-14T05:00:47.374Z,43.37
2019-04-14T05:03:19.638Z,44.77
2019-04-14T05:07:07.849Z,44.23
2019-04-14T05:10:00.197Z,43.17
2019-04-14T05:12:52.242Z,43.30
2019-04-14T05:15:44.614Z,42.10
2019-04-14T05:18:22.202Z,42.80
2019-04-14T05:20:55.358Z,40.13
2019-04-14T05:23:27.859Z,44.63
2019-04-14T05:26:00.560Z,43.10
2019-04-14T05:28:33.179Z,43.67
2019-04-14T05:31:05.518Z,42.40
2019-04-14T05:33:38.285Z,42.83
2019-04-14T05:36:10.754Z,42.20
2019-04-14T05:38:42.894Z,44.20
2019-04-14T05:41:15.843Z,44.20
2019-04-14T05:43:53.918Z,41.43
2019-04-14T05:46:23.086Z,42.13
2019-04-14T05:48:55.766Z,41.40
2019-04-14T05:51:28.394Z,44.47
2019-04-14T05:54:01.130Z,42.57
2019-04-14T05:56:35.084Z,44.93
2019-04-14T05:59:07.041Z,42.90
2019-04-14T06:01:39.296Z,42.60
2019-04-14T06:04:11.462Z,41.77
2019-04-14T06:06:43.395Z,40.47
2019-04-14T06:09:15.377Z,39.30
2019-04-14T06:11:47.366Z,41.33
2019-04-14T06:14:19.305Z,41.20
2019-04-14T06:16:51.278Z,41.63
2019-04-14T06:19:23.254Z,39.90
2019-04-14T06:21:55.237Z,41.07
2019-04-14T06:24:27.208Z,40.33
2019-04-14T06:26:59.247Z,40.40
2019-04-14T06:29:31.227Z,39.77
2019-04-14T06:32:21.682Z,40.03
2019-04-14T06:35:20.608Z,40.60
2019-04-14T06:38:13.929Z,40.10
2019-04-14T06:40:54.317Z,39.87
2019-04-14T06:43:26.331Z,39.90
2019-04-14T06:45:58.300Z,38.90
2019-04-14T06:48:30.296Z,39.63
2019-04-14T06:51:02.320Z,39.40
2019-04-14T06:53:34.315Z,39.47
2019-04-14T06:56:06.307Z,38.57
2019-04-14T06:58:38.277Z,40.87
2019-04-14T07:01:10.275Z,37.50
2019-04-14T07:03:42.278Z,38.30
2019-04-14T07:06:14.254Z,39.20
2019-04-14T07:08:46.268Z,39.03
2019-04-14T07:11:18.229Z,38.37
2019-04-14T07:13:50.194Z,38.03
2019-04-14T07:16:22.157Z,36.73
2019-04-14T07:18:54.151Z,37.17
2019-04-14T07:21:26.133Z,37.43
2019-04-14T07:23:58.160Z,35.73
2019-04-14T07:26:30.174Z,36.20
2019-04-14T07:29:02.205Z,36.33
2019-04-14T07:31:57.742Z,36.97
2019-04-14T07:34:40.186Z,35.20
2019-04-14T07:37:47.155Z,35.37
2019-04-14T07:40:38.771Z,37.60
2019-04-14T07:43:45.668Z,37.40
2019-04-14T07:46:31.116Z,35.67
2019-04-14T07:49:16.298Z,37.53
2019-04-14T07:52:07.884Z,36.03
2019-04-14T07:55:03.528Z,35.17
2019-04-14T07:57:53.851Z,36.77
2019-04-14T08:00:35.225Z,37.03
2019-04-14T08:03:14.955Z,35.23
2019-04-14T08:05:46.954Z,36.13
2019-04-14T08:08:18.968Z,36.33
2019-04-14T08:10:50.940Z,36.33
2019-04-14T08:13:22.991Z,37.23
2019-04-14T08:15:54.956Z,35.60
2019-04-14T08:18:26.965Z,34.77
2019-04-14T08:20:58.955Z,35.57
2019-04-14T08:23:30.909Z,36.20
2019-04-14T08:26:02.939Z,34.60
2019-04-14T08:28:34.951Z,35.33
2019-04-14T08:31:06.938Z,34.57
2019-04-14T08:33:38.923Z,35.73
2019-04-14T08:36:10.910Z,33.47
2019-04-14T08:38:42.928Z,36.10
2019-04-14T08:41:14.967Z,36.63
2019-04-14T08:43:59.330Z,35.60
2019-04-14T08:46:41.762Z,35.03
2019-04-14T08:49:36.339Z,35.40
2019-04-14T08:52:46.120Z,35.70
2019-04-14T08:55:22.256Z,35.10
2019-04-14T08:58:16.641Z,36.37
2019-04-14T09:01:09.006Z,35.97
2019-04-14T09:04:18.984Z,36.20
2019-04-14T09:07:08.734Z,35.40
2019-04-14T09:09:46.804Z,33.43
2019-04-14T09:12:22.811Z,35.17
2019-04-14T09:14:57.274Z,34.33
2019-04-14T09:17:30.190Z,34.10
2019-04-14T09:20:02.187Z,33.87
2019-04-14T09:22:34.254Z,33.87
2019-04-14T09:25:06.245Z,34.23
2019-04-14T09:27:38.245Z,31.83
2019-04-14T09:30:10.262Z,32.00
2019-04-14T09:32:42.264Z,33.37
2019-04-14T09:35:14.255Z,33.73
2019-04-14T09:37:46.282Z,34.20
2019-04-14T09:40:18.279Z,34.07
2019-04-14T09:42:50.268Z,33.27
2019-04-14T09:45:22.301Z,33.57
2019-04-14T09:47:54.366Z,34.17
2019-04-14T09:50:26.320Z,33.20
2019-04-14T09:52:58.355Z,33.23
2019-04-14T09:55:30.437Z,32.60
2019-04-14T09:58:02.499Z,33.23
2019-04-14T10:00:35.705Z,33.83
2019-04-14T10:03:08.231Z,33.37
2019-04-14T10:05:40.276Z,34.97
2019-04-14T10:08:12.313Z,34.00
2019-04-14T10:10:44.363Z,32.57
2019-04-14T10:13:16.453Z,32.97
2019-04-14T10:15:48.446Z,32.57
2019-04-14T10:18:20.493Z,33.13
2019-04-14T10:20:52.475Z,33.80
2019-04-14T10:23:24.478Z,33.40
2019-04-14T10:25:56.488Z,33.10
2019-04-14T10:28:28.492Z,33.53
2019-04-14T10:31:00.491Z,33.53
2019-04-14T10:33:32.490Z,32.10
2019-04-14T10:36:04.450Z,33.23
2019-04-14T10:38:36.446Z,33.33
2019-04-14T10:41:08.501Z,31.13
2019-04-14T10:43:40.631Z,32.90
2019-04-14T10:46:12.644Z,33.90
2019-04-14T10:48:44.713Z,31.47
2019-04-14T10:51:29.212Z,33.93
2019-04-14T10:53:50.648Z,33.10
2019-04-14T10:56:22.696Z,30.87
2019-04-14T10:58:54.771Z,33.33
2019-04-14T11:01:26.754Z,32.00
2019-04-14T11:03:58.791Z,32.03
2019-04-14T11:06:53.162Z,32.97
2019-04-14T11:09:25.199Z,32.80
2019-04-14T11:11:57.196Z,32.17
2019-04-14T11:14:29.193Z,33.23
2019-04-14T11:17:01.177Z,33.93
2019-04-14T11:19:33.186Z,32.70
2019-04-14T11:22:07.078Z,32.07
2019-04-14T11:24:39.153Z,32.20
2019-04-14T11:27:14.354Z,31.47
2019-04-14T11:29:46.375Z,32.57
2019-04-14T11:32:47.269Z,33.07
2019-04-14T11:35:47.644Z,32.20
2019-04-14T11:38:23.809Z,30.47
2019-04-14T11:40:57.968Z,31.70
2019-04-14T11:43:29.953Z,31.87
2019-04-14T11:46:03.912Z,31.63
2019-04-14T11:48:35.853Z,31.17
2019-04-14T11:51:07.881Z,31.37
2019-04-14T11:53:41.181Z,29.63
2019-04-14T11:56:13.218Z,31.00
2019-04-14T11:58:45.242Z,29.83
2019-04-14T12:01:48.974Z,28.50
2019-04-14T12:04:52.607Z,29.57
2019-04-14T12:07:46.982Z,27.73
2019-04-14T12:10:23.432Z,27.80
2019-04-14T12:12:55.424Z,28.50
2019-04-14T12:15:27.469Z,29.17
2019-04-14T12:17:59.620Z,29.10
2019-04-14T12:20:31.611Z,30.37
2019-04-14T12:23:03.652Z,29.30
2019-04-14T12:25:35.639Z,27.83
2019-04-14T12:28:07.668Z,29.17
2019-04-14T12:30:39.975Z,28.47
2019-04-14T12:33:11.983Z,29.10
2019-04-14T12:35:43.957Z,27.33
2019-04-14T12:38:17.745Z,31.23
2019-04-14T12:40:50.235Z,27.50
2019-04-14T12:43:28.878Z,28.17
2019-04-14T12:46:13.199Z,26.43
2019-04-14T12:48:52.978Z,26.37
2019-04-14T12:51:28.809Z,25.00
2019-04-14T12:54:00.844Z,25.17
2019-04-14T12:56:32.823Z,23.23
2019-04-14T12:59:24.420Z,23.37
2019-04-14T13:02:15.999Z,23.07
2019-04-14T13:04:48.121Z,22.43
2019-04-14T13:07:20.082Z,22.47
2019-04-14T13:09:52.109Z,22.00
2019-04-14T13:12:24.135Z,21.50
2019-04-14T13:14:56.151Z,21.83
2019-04-14T13:17:28.278Z,21.50
2019-04-14T13:20:00.363Z,21.70
2019-04-14T13:22:34.075Z,21.67
2019-04-14T13:25:06.275Z,20.20
2019-04-14T13:27:38.248Z,21.63
2019-04-14T13:30:12.137Z,22.00
2019-04-14T13:32:44.118Z,22.53
2019-04-14T13:35:18.572Z,22.03
2019-04-14T13:37:50.557Z,23.17
2019-04-14T13:40:22.613Z,20.80
2019-04-14T13:42:54.659Z,21.50
2019-04-14T13:45:26.978Z,21.67
2019-04-14T13:47:59.853Z,21.87
2019-04-14T13:50:31.886Z,21.93
2019-04-14T13:53:03.843Z,22.37
2019-04-14T13:55:35.838Z,22.93
2019-04-14T13:58:10.379Z,21.87
2019-04-14T14:00:42.394Z,21.43
2019-04-14T14:03:16.214Z,21.67
2019-04-14T14:05:48.244Z,22.80
2019-04-14T14:08:20.284Z,21.87
2019-04-14T14:10:56.380Z,20.83
2019-04-14T14:13:36.738Z,20.60
2019-04-14T14:16:24.936Z,19.10
2019-04-14T14:19:01.026Z,20.20
2019-04-14T14:21:39.906Z,18.43
2019-04-14T14:24:25.878Z,19.20
2019-04-14T14:26:58.253Z,17.63
2019-04-14T14:29:30.248Z,16.93
2019-04-14T14:32:04.330Z,16.47
2019-04-14T14:34:36.307Z,17.33
2019-04-14T14:37:08.344Z,17.47
2019-04-14T14:39:40.364Z,17.23
2019-04-14T14:42:12.398Z,16.00
2019-04-14T14:44:49.731Z,17.40
2019-04-14T14:47:27.506Z,17.13
2019-04-14T14:50:11.666Z,18.57
2019-04-14T14:52:43.714Z,16.70
2019-04-14T14:55:15.738Z,17.30
2019-04-14T14:57:47.787Z,17.87
2019-04-14T15:00:35.082Z,18.23
2019-04-14T15:03:07.217Z,17.50
2019-04-14T15:05:39.246Z,17.67
2019-04-14T15:08:11.309Z,16.87
2019-04-14T15:10:43.368Z,17.97
2019-04-14T15:13:15.393Z,18.80
2019-04-14T15:15:47.431Z,17.80
2019-04-14T15:18:19.467Z,17.10
2019-04-14T15:20:51.501Z,17.40
2019-04-14T15:23:25.275Z,17.20
2019-04-14T15:25:59.795Z,18.33
2019-04-14T15:28:31.922Z,18.20
2019-04-14T15:31:03.926Z,17.73
2019-04-14T15:33:35.984Z,17.23
2019-04-14T15:36:08.016Z,17.80
2019-04-14T15:38:41.609Z,17.27
2019-04-14T15:41:13.602Z,17.43
2019-04-14T15:43:48.149Z,15.97
2019-04-14T15:46:20.130Z,17.27
2019-04-14T15:48:52.153Z,17.43
2019-04-14T15:51:24.144Z,16.90
2019-04-14T15:53:56.114Z,16.77
2019-04-14T15:56:50.492Z,16.60
2019-04-14T15:59:51.224Z,16.83
2019-04-14T16:02:45.634Z,17.13
2019-04-14T16:05:29.052Z,16.87
2019-04-14T16:08:06.215Z,17.00
2019-04-14T16:10:46.615Z,17.33
2019-04-14T16:13:26.001Z,17.37
2019-04-14T16:16:11.230Z,17.30
2019-04-14T16:18:56.528Z,17.90
2019-04-14T16:21:28.587Z,17.33
2019-04-14T16:24:00.643Z,18.60
2019-04-14T16:26:52.253Z,17.07
2019-04-14T16:29:35.356Z,17.50
2019-04-14T16:32:45.421Z,18.13
2019-04-14T16:35:20.736Z,16.77
2019-04-14T16:37:52.733Z,17.63
2019-04-14T16:40:24.894Z,17.87
2019-04-14T16:42:56.943Z,17.53
2019-04-14T16:45:29.014Z,17.03
2019-04-14T16:48:01.059Z,18.27
2019-04-14T16:50:33.136Z,18.67
2019-04-14T16:53:15.861Z,17.83
2019-04-14T16:56:03.770Z,17.57
2019-04-14T16:58:40.888Z,17.57
2019-04-14T17:01:20.793Z,17.73
2019-04-14T17:03:52.825Z,16.90
2019-04-14T17:06:24.908Z,18.13
2019-04-14T17:08:56.906Z,18.93
2019-04-14T17:11:28.937Z,16.83
2019-04-14T17:14:07.095Z,17.90
2019-04-14T17:17:13.897Z,17.97
2019-04-14T17:20:13.514Z,16.60
2019-04-14T17:23:07.892Z,17.13
2019-04-14T17:26:14.962Z,16.83
2019-04-14T17:29:09.479Z,15.67
2019-04-14T17:32:06.583Z,16.00
2019-04-14T17:34:49.761Z,18.00
2019-04-14T17:37:40.239Z,16.97
2019-04-14T17:40:33.037Z,18.17
2019-04-14T17:43:14.368Z,17.40
2019-04-14T17:46:08.778Z,18.37
2019-04-14T17:49:06.464Z,17.00
2019-04-14T17:51:46.939Z,17.17
2019-04-14T17:54:53.880Z,16.90
2019-04-14T17:57:44.297Z,16.27
2019-04-14T18:00:20.417Z,18.17
2019-04-14T18:03:12.061Z,17.50
2019-04-14T18:05:50.572Z,15.93
2019-04-14T18:08:43.834Z,15.73
2019-04-14T18:11:41.272Z,17.30
2019-04-14T18:14:23.691Z,16.53
2019-04-14T18:17:10.044Z,16.43
2019-04-14T18:20:07.651Z,16.43
2019-04-14T18:22:39.656Z,18.37
2019-04-14T18:25:11.634Z,17.60
2019-04-14T18:28:12.304Z,17.10
2019-04-14T18:30:50.588Z,16.67
2019-04-14T18:33:38.292Z,16.37
2019-04-14T18:36:17.528Z,17.00
2019-04-14T18:39:08.010Z,17.13
2019-04-14T18:41:49.200Z,15.33
2019-04-14T18:44:30.892Z,16.77
2019-04-14T18:47:19.802Z,16.00
2019-04-14T18:50:00.391Z,16.20
2019-04-14T18:53:07.201Z,17.07
2019-04-14T18:56:10.906Z,17.73
2019-04-14T18:59:02.843Z,17.70
2019-04-14T19:01:37.854Z,16.70
2019-04-14T19:04:10.181Z,16.03
2019-04-14T19:06:42.528Z,19.00
2019-04-14T19:09:14.624Z,16.97
2019-04-14T19:12:06.217Z,16.40
2019-04-14T19:14:39.347Z,15.53
2019-04-14T19:17:35.919Z,18.00
2019-04-14T19:20:08.212Z,16.80
2019-04-14T19:22:40.343Z,19.07
2019-04-14T19:25:12.432Z,17.97
2019-04-14T19:27:47.429Z,18.97
2019-04-14T19:30:19.559Z,18.83
2019-04-14T19:32:51.556Z,18.87
2019-04-14T19:35:23.636Z,18.70
2019-04-14T19:37:55.633Z,18.43
2019-04-14T19:40:27.697Z,16.73
2019-04-14T19:42:59.813Z,18.00
2019-04-14T19:45:31.849Z,18.60
2019-04-14T19:48:03.883Z,17.27
2019-04-14T19:50:36.027Z,17.83
2019-04-14T19:53:08.048Z,18.13
2019-04-14T19:55:40.179Z,19.03
2019-04-14T19:58:12.218Z,17.50
2019-04-14T20:00:44.300Z,17.77
2019-04-14T20:03:16.344Z,18.07
2019-04-14T20:05:48.446Z,19.70
2019-04-14T20:08:20.452Z,19.17
2019-04-14T20:10:52.559Z,19.40
2019-04-14T20:13:25.878Z,19.43
2019-04-14T20:16:17.555Z,18.87
2019-04-14T20:19:24.587Z,21.10
2019-04-14T20:22:14.717Z,20.03
2019-04-14T20:25:09.358Z,21.20
2019-04-14T20:28:01.601Z,19.90
2019-04-14T20:30:38.028Z,19.13
2019-04-14T20:33:10.162Z,19.03
2019-04-14T20:35:42.144Z,19.57
2019-04-14T20:38:14.189Z,20.37
2019-04-14T20:40:46.239Z,19.43
2019-04-14T20:43:18.334Z,21.53
2019-04-14T20:45:50.308Z,18.80
2019-04-14T20:48:22.321Z,18.23
2019-04-14T20:50:54.295Z,16.83
2019-04-14T20:53:26.316Z,19.27
2019-04-14T20:55:58.297Z,18.80
2019-04-14T20:58:30.330Z,17.93
2019-04-14T21:01:04.268Z,20.33
2019-04-14T21:03:43.618Z,19.17
2019-04-14T21:06:35.219Z,17.53
2019-04-14T21:09:17.531Z,16.90
2019-04-14T21:12:07.800Z,18.50
2019-04-14T21:14:57.348Z,19.77
2019-04-14T21:17:37.376Z,18.40
2019-04-14T21:20:19.299Z,18.63
2019-04-14T21:23:09.278Z,18.73
2019-04-14T21:26:04.618Z,17.80
2019-04-14T21:28:45.877Z,18.33
2019-04-14T21:31:37.452Z,18.60
2019-04-14T21:34:28.446Z,18.30
2019-04-14T21:37:38.141Z,18.77
2019-04-14T21:40:29.774Z,18.10
2019-04-14T21:43:01.806Z,16.33
2019-04-14T21:45:33.853Z,16.20
2019-04-14T21:48:05.899Z,15.50
2019-04-14T21:50:37.910Z,16.47
2019-04-14T21:53:09.901Z,16.17
2019-04-14T21:55:41.898Z,16.40
2019-04-14T21:58:22.413Z,16.27
2019-04-14T22:01:51.435Z,17.50
2019-04-14T22:04:35.941Z,18.03
2019-04-14T22:07:26.148Z,17.07
2019-04-14T22:10:13.671Z,15.97
2019-04-14T22:12:46.517Z,16.83
2019-04-14T22:15:18.498Z,16.57
2019-04-14T22:17:50.478Z,16.20
2019-04-14T22:20:22.553Z,16.43
2019-04-14T22:22:54.519Z,17.20
2019-04-14T22:25:26.646Z,17.20
2019-04-14T22:27:58.657Z,16.63
2019-04-14T22:30:30.684Z,17.77
2019-04-14T22:33:05.693Z,16.07
2019-04-14T22:35:37.694Z,17.33
2019-04-14T22:38:09.645Z,16.10
2019-04-14T22:40:41.638Z,15.47
2019-04-14T22:43:13.773Z,15.97
2019-04-14T22:45:45.760Z,16.97
2019-04-14T22:48:20.042Z,18.00
2019-04-14T22:50:52.201Z,17.07
2019-04-14T22:53:24.109Z,17.63
2019-04-14T22:55:56.146Z,16.23
2019-04-14T22:58:28.145Z,15.90
2019-04-14T23:01:05.107Z,15.07
2019-04-14T23:04:01.723Z,15.00
2019-04-14T23:06:56.060Z,14.17
2019-04-14T23:09:33.149Z,16.27
2019-04-14T23:12:22.400Z,14.93
2019-04-14T23:15:32.518Z,14.43
2019-04-14T23:18:13.012Z,15.00
2019-04-14T23:21:10.604Z,15.27
2019-04-14T23:24:02.083Z,14.50
2019-04-14T23:26:34.064Z,15.30
2019-04-14T23:29:06.019Z,13.70
2019-04-14T23:31:37.976Z,14.67
2019-04-14T23:34:09.980Z,13.63
2019-04-14T23:36:43.170Z,14.83
2019-04-14T23:39:15.138Z,14.70
2019-04-14T23:41:49.373Z,14.67
2019-04-14T23:44:21.313Z,13.40
2019-04-14T23:46:53.294Z,14.23
2019-04-14T23:49:25.327Z,13.30
2019-04-14T23:51:57.286Z,14.43
2019-04-14T23:54:29.236Z,14.60
2019-04-14T23:57:05.866Z,14.57
2019-04-14T23:59:37.815Z,12.93
